sensor_id;sensor_type;location;lat;lon;timestamp;noise_LAeq;noise_LA_min;noise_LA_max;noise_LA01;noise_LA95
69610;Laerm;76208;51.928;6.584;2024-02-15T00:00:02;40.60;31.47;53.78;;
69610;Laerm;76208;51.928;6.584;2024-02-15T00:00:13;38.60;30.36;51.75;;
69610;Laerm;76208;51.928;6.584;2024-02-15T00:00:25;33.96;30.90;40.67;;
69610;Laerm;76208;51.928;6.584;2024-02-15T00:00:37;39.75;30.05;52.36;;
69610;Laerm;76208;51.928;6.584;2024-02-15T00:00:47;38.96;31.45;50.64;;
69610;Laerm;76208;51.928;6.584;2024-02-15T00:00:58;39.39;29.87;54.04;;
69610;Laerm;76208;51.928;6.584;2024-02-15T00:01:09;33.37;29.30;42.50;;
69610;Laerm;76208;51.928;6.584;2024-02-15T00:01:20;32.58;28.90;40.34;;
69610;Laerm;76208;51.928;6.584;2024-02-15T00:01:30;37.50;29.21;50.62;;
69610;Laerm;76208;51.928;6.584;2024-02-15T00:01:40;41.91;29.73;57.53;;
69610;Laerm;76208;51.928;6.584;2024-02-15T00:01:50;43.51;31.17;57.42;;
69610;Laerm;76208;51.928;6.584;2024-02-15T00:02:01;43.45;31.91;56.15;;
69610;Laerm;76208;51.928;6.584;2024-02-15T00:02:11;37.74;29.47;51.10;;
69610;Laerm;76208;51.928;6.584;2024-02-15T00:02:21;38.54;28.65;51.58;;
69610;Laerm;76208;51.928;6.584;2024-02-15T00:02:31;47.14;30.09;62.53;;
69610;Laerm;76208;51.928;6.584;2024-02-15T00:02:42;34.18;29.49;46.31;;
69610;Laerm;76208;51.928;6.584;2024-02-15T00:02:54;38.76;29.24;49.53;;
69610;Laerm;76208;51.928;6.584;2024-02-15T00:03:06;40.94;29.60;52.28;;
69610;Laerm;76208;51.928;6.584;2024-02-15T00:03:16;39.98;29.03;53.81;;
69610;Laerm;76208;51.928;6.584;2024-02-15T00:03:26;33.02;28.45;45.42;;
69610;Laerm;76208;51.928;6.584;2024-02-15T00:03:37;45.13;28.63;55.53;;
69610;Laerm;76208;51.928;6.584;2024-02-15T00:03:47;36.00;28.64;48.73;;
69610;Laerm;76208;51.928;6.584;2024-02-15T00:03:58;29.96;28.24;43.13;;
69610;Laerm;76208;51.928;6.584;2024-02-15T00:04:08;29.94;28.46;38.30;;
69610;Laerm;76208;51.928;6.584;2024-02-15T00:04:20;31.25;28.29;38.08;;
69610;Laerm;76208;51.928;6.584;2024-02-15T00:04:31;30.68;28.57;39.56;;
69610;Laerm;76208;51.928;6.584;2024-02-15T00:04:43;41.89;28.68;57.10;;
69610;Laerm;76208;51.928;6.584;2024-02-15T00:04:53;43.12;29.13;55.04;;
69610;Laerm;76208;51.928;6.584;2024-02-15T00:05:04;31.15;28.48;40.86;;
69610;Laerm;76208;51.928;6.584;2024-02-15T00:05:14;31.63;28.91;41.50;;
69610;Laerm;76208;51.928;6.584;2024-02-15T00:05:27;32.36;28.59;40.24;;
69610;Laerm;76208;51.928;6.584;2024-02-15T00:05:37;32.39;28.12;46.28;;
69610;Laerm;76208;51.928;6.584;2024-02-15T00:05:47;30.07;27.87;41.05;;
69610;Laerm;76208;51.928;6.584;2024-02-15T00:05:58;30.12;28.10;38.74;;
69610;Laerm;76208;51.928;6.584;2024-02-15T00:06:08;31.89;29.02;38.39;;
69610;Laerm;76208;51.928;6.584;2024-02-15T00:06:19;41.31;30.61;54.74;;
69610;Laerm;76208;51.928;6.584;2024-02-15T00:06:29;40.63;28.40;52.96;;
69610;Laerm;76208;51.928;6.584;2024-02-15T00:06:39;32.83;28.94;42.47;;
69610;Laerm;76208;51.928;6.584;2024-02-15T00:06:50;32.05;28.97;41.04;;
69610;Laerm;76208;51.928;6.584;2024-02-15T00:07:00;31.91;29.12;44.47;;
69610;Laerm;76208;51.928;6.584;2024-02-15T00:07:12;30.70;28.93;34.71;;
69610;Laerm;76208;51.928;6.584;2024-02-15T00:07:22;31.82;29.62;44.47;;
69610;Laerm;76208;51.928;6.584;2024-02-15T00:07:33;34.25;29.12;49.46;;
69610;Laerm;76208;51.928;6.584;2024-02-15T00:07:45;31.47;29.34;40.43;;
69610;Laerm;76208;51.928;6.584;2024-02-15T00:07:58;31.99;28.75;42.88;;
69610;Laerm;76208;51.928;6.584;2024-02-15T00:08:09;30.85;28.36;38.10;;
69610;Laerm;76208;51.928;6.584;2024-02-15T00:08:20;33.49;28.51;45.65;;
69610;Laerm;76208;51.928;6.584;2024-02-15T00:08:31;39.09;29.34;51.10;;
69610;Laerm;76208;51.928;6.584;2024-02-15T00:08:41;34.89;29.45;48.39;;
69610;Laerm;76208;51.928;6.584;2024-02-15T00:08:51;35.09;29.29;45.56;;
69610;Laerm;76208;51.928;6.584;2024-02-15T00:09:02;42.71;29.43;54.99;;
69610;Laerm;76208;51.928;6.584;2024-02-15T00:09:12;38.83;28.48;51.33;;
69610;Laerm;76208;51.928;6.584;2024-02-15T00:09:22;37.04;28.53;50.36;;
69610;Laerm;76208;51.928;6.584;2024-02-15T00:09:32;37.38;29.74;46.70;;
69610;Laerm;76208;51.928;6.584;2024-02-15T00:09:43;31.38;29.46;36.42;;
69610;Laerm;76208;51.928;6.584;2024-02-15T00:09:53;38.08;28.90;53.88;;
69610;Laerm;76208;51.928;6.584;2024-02-15T00:10:06;39.47;28.72;47.50;;
69610;Laerm;76208;51.928;6.584;2024-02-15T00:10:18;39.64;29.14;48.69;;
69610;Laerm;76208;51.928;6.584;2024-02-15T00:10:28;37.76;28.96;49.62;;
69610;Laerm;76208;51.928;6.584;2024-02-15T00:10:38;37.34;28.35;50.77;;
69610;Laerm;76208;51.928;6.584;2024-02-15T00:10:48;30.69;28.32;37.68;;
69610;Laerm;76208;51.928;6.584;2024-02-15T00:10:59;30.24;28.41;35.11;;
69610;Laerm;76208;51.928;6.584;2024-02-15T00:11:09;29.87;28.32;34.88;;
69610;Laerm;76208;51.928;6.584;2024-02-15T00:11:19;35.65;28.34;47.15;;
69610;Laerm;76208;51.928;6.584;2024-02-15T00:11:29;32.72;28.76;41.21;;
69610;Laerm;76208;51.928;6.584;2024-02-15T00:11:39;31.68;28.50;40.80;;
69610;Laerm;76208;51.928;6.584;2024-02-15T00:11:50;30.05;28.12;37.07;;
69610;Laerm;76208;51.928;6.584;2024-02-15T00:12:00;30.27;28.15;37.64;;
69610;Laerm;76208;51.928;6.584;2024-02-15T00:12:10;30.41;28.24;36.94;;
69610;Laerm;76208;51.928;6.584;2024-02-15T00:12:20;32.85;29.11;42.44;;
69610;Laerm;76208;51.928;6.584;2024-02-15T00:12:31;31.92;28.83;40.42;;
69610;Laerm;76208;51.928;6.584;2024-02-15T00:12:41;36.00;29.67;47.69;;
69610;Laerm;76208;51.928;6.584;2024-02-15T00:12:51;43.20;36.26;53.93;;
69610;Laerm;76208;51.928;6.584;2024-02-15T00:13:02;41.65;39.33;44.60;;
69610;Laerm;76208;51.928;6.584;2024-02-15T00:13:12;41.60;39.50;43.66;;
69610;Laerm;76208;51.928;6.584;2024-02-15T00:13:23;43.45;40.44;54.23;;
69610;Laerm;76208;51.928;6.584;2024-02-15T00:13:33;41.09;38.37;44.20;;
69610;Laerm;76208;51.928;6.584;2024-02-15T00:13:43;39.45;37.69;42.54;;
69610;Laerm;76208;51.928;6.584;2024-02-15T00:13:54;39.85;37.74;42.61;;
69610;Laerm;76208;51.928;6.584;2024-02-15T00:14:06;40.16;37.34;45.90;;
69610;Laerm;76208;51.928;6.584;2024-02-15T00:14:17;40.00;37.79;42.89;;
69610;Laerm;76208;51.928;6.584;2024-02-15T00:14:28;44.32;38.41;54.35;;
69610;Laerm;76208;51.928;6.584;2024-02-15T00:14:39;42.61;39.15;51.27;;
69610;Laerm;76208;51.928;6.584;2024-02-15T00:14:49;42.14;39.84;51.32;;
69610;Laerm;76208;51.928;6.584;2024-02-15T00:14:59;39.79;37.93;43.21;;
69610;Laerm;76208;51.928;6.584;2024-02-15T00:15:10;41.66;37.22;50.26;;
69610;Laerm;76208;51.928;6.584;2024-02-15T00:15:21;39.94;37.62;47.98;;
69610;Laerm;76208;51.928;6.584;2024-02-15T00:15:31;39.57;37.52;42.19;;
69610;Laerm;76208;51.928;6.584;2024-02-15T00:15:41;45.62;37.91;54.23;;
69610;Laerm;76208;51.928;6.584;2024-02-15T00:15:51;41.94;37.40;55.87;;
69610;Laerm;76208;51.928;6.584;2024-02-15T00:16:02;40.98;37.69;49.89;;
69610;Laerm;76208;51.928;6.584;2024-02-15T00:16:13;42.17;37.40;52.40;;
69610;Laerm;76208;51.928;6.584;2024-02-15T00:16:23;40.65;37.44;53.57;;
69610;Laerm;76208;51.928;6.584;2024-02-15T00:16:34;39.85;38.22;42.76;;
69610;Laerm;76208;51.928;6.584;2024-02-15T00:16:45;39.99;38.16;45.95;;
69610;Laerm;76208;51.928;6.584;2024-02-15T00:16:55;39.58;37.67;43.34;;
69610;Laerm;76208;51.928;6.584;2024-02-15T00:17:06;41.39;38.00;50.55;;
69610;Laerm;76208;51.928;6.584;2024-02-15T00:17:16;40.64;38.39;47.85;;
69610;Laerm;76208;51.928;6.584;2024-02-15T00:17:27;41.62;37.99;48.70;;
69610;Laerm;76208;51.928;6.584;2024-02-15T00:17:39;43.37;38.23;54.17;;
69610;Laerm;76208;51.928;6.584;2024-02-15T00:17:49;49.01;39.02;65.46;;
69610;Laerm;76208;51.928;6.584;2024-02-15T00:17:59;49.02;39.32;60.48;;
69610;Laerm;76208;51.928;6.584;2024-02-15T00:18:10;47.61;38.02;58.03;;
69610;Laerm;76208;51.928;6.584;2024-02-15T00:18:20;41.04;38.03;48.51;;
69610;Laerm;76208;51.928;6.584;2024-02-15T00:18:31;39.64;38.07;41.66;;
69610;Laerm;76208;51.928;6.584;2024-02-15T00:18:41;39.84;37.57;45.72;;
69610;Laerm;76208;51.928;6.584;2024-02-15T00:18:51;40.21;37.93;45.93;;
69610;Laerm;76208;51.928;6.584;2024-02-15T00:19:01;39.89;38.41;43.96;;
69610;Laerm;76208;51.928;6.584;2024-02-15T00:19:12;39.99;38.21;46.00;;
69610;Laerm;76208;51.928;6.584;2024-02-15T00:19:23;40.26;38.28;44.40;;
69610;Laerm;76208;51.928;6.584;2024-02-15T00:19:33;40.24;37.91;45.66;;
69610;Laerm;76208;51.928;6.584;2024-02-15T00:19:44;47.13;38.09;62.47;;
69610;Laerm;76208;51.928;6.584;2024-02-15T00:19:54;43.59;38.15;54.40;;
69610;Laerm;76208;51.928;6.584;2024-02-15T00:20:05;50.06;38.65;63.40;;
69610;Laerm;76208;51.928;6.584;2024-02-15T00:20:19;43.21;36.89;55.58;;
69610;Laerm;76208;51.928;6.584;2024-02-15T00:20:30;51.68;37.87;64.26;;
69610;Laerm;76208;51.928;6.584;2024-02-15T00:20:40;42.20;37.29;53.21;;
69610;Laerm;76208;51.928;6.584;2024-02-15T00:20:50;38.81;37.01;48.36;;
69610;Laerm;76208;51.928;6.584;2024-02-15T00:21:00;42.49;29.29;52.54;;
69610;Laerm;76208;51.928;6.584;2024-02-15T00:21:11;33.65;28.17;44.85;;
69610;Laerm;76208;51.928;6.584;2024-02-15T00:21:21;31.41;28.44;40.68;;
69610;Laerm;76208;51.928;6.584;2024-02-15T00:21:32;38.13;28.55;53.03;;
69610;Laerm;76208;51.928;6.584;2024-02-15T00:21:43;38.22;28.78;53.97;;
69610;Laerm;76208;51.928;6.584;2024-02-15T00:21:53;30.43;28.74;37.05;;
69610;Laerm;76208;51.928;6.584;2024-02-15T00:22:05;33.32;28.19;46.19;;
69610;Laerm;76208;51.928;6.584;2024-02-15T00:22:15;48.08;29.30;57.98;;
69610;Laerm;76208;51.928;6.584;2024-02-15T00:22:26;44.16;29.31;56.98;;
69610;Laerm;76208;51.928;6.584;2024-02-15T00:22:36;46.68;33.14;60.69;;
69610;Laerm;76208;51.928;6.584;2024-02-15T00:22:46;46.77;29.84;58.33;;
69610;Laerm;76208;51.928;6.584;2024-02-15T00:22:57;44.08;29.03;55.80;;
69610;Laerm;76208;51.928;6.584;2024-02-15T00:23:08;38.77;28.71;54.16;;
69610;Laerm;76208;51.928;6.584;2024-02-15T00:23:18;34.08;28.68;50.86;;
69610;Laerm;76208;51.928;6.584;2024-02-15T00:23:28;33.15;28.64;42.64;;
69610;Laerm;76208;51.928;6.584;2024-02-15T00:23:40;31.87;28.74;46.53;;
69610;Laerm;76208;51.928;6.584;2024-02-15T00:23:51;40.90;29.01;52.64;;
69610;Laerm;76208;51.928;6.584;2024-02-15T00:24:01;44.82;30.23;57.55;;
69610;Laerm;76208;51.928;6.584;2024-02-15T00:24:11;54.24;32.98;65.97;;
69610;Laerm;76208;51.928;6.584;2024-02-15T00:24:22;40.74;30.27;53.93;;
69610;Laerm;76208;51.928;6.584;2024-02-15T00:24:32;46.70;30.88;58.63;;
69610;Laerm;76208;51.928;6.584;2024-02-15T00:24:42;58.07;32.77;70.34;;
69610;Laerm;76208;51.928;6.584;2024-02-15T00:24:54;47.53;30.44;60.04;;
69610;Laerm;76208;51.928;6.584;2024-02-15T00:25:04;41.73;29.44;55.04;;
69610;Laerm;76208;51.928;6.584;2024-02-15T00:25:15;32.15;29.47;40.39;;
69610;Laerm;76208;51.928;6.584;2024-02-15T00:25:26;31.95;30.07;35.88;;
69610;Laerm;76208;51.928;6.584;2024-02-15T00:25:36;32.61;29.91;42.04;;
69610;Laerm;76208;51.928;6.584;2024-02-15T00:25:46;36.89;30.28;49.67;;
69610;Laerm;76208;51.928;6.584;2024-02-15T00:25:56;34.76;29.95;42.04;;
69610;Laerm;76208;51.928;6.584;2024-02-15T00:26:06;37.87;29.54;50.52;;
69610;Laerm;76208;51.928;6.584;2024-02-15T00:26:17;44.27;28.85;60.79;;
69610;Laerm;76208;51.928;6.584;2024-02-15T00:26:27;32.99;29.56;40.39;;
69610;Laerm;76208;51.928;6.584;2024-02-15T00:26:37;47.96;33.78;60.99;;
69610;Laerm;76208;51.928;6.584;2024-02-15T00:26:48;54.84;33.80;67.06;;
69610;Laerm;76208;51.928;6.584;2024-02-15T00:26:58;52.35;34.07;65.45;;
69610;Laerm;76208;51.928;6.584;2024-02-15T00:27:08;44.67;32.19;58.00;;
69610;Laerm;76208;51.928;6.584;2024-02-15T00:27:18;35.44;30.97;43.16;;
69610;Laerm;76208;51.928;6.584;2024-02-15T00:27:29;39.90;32.16;52.36;;
69610;Laerm;76208;51.928;6.584;2024-02-15T00:27:39;35.46;31.17;44.93;;
69610;Laerm;76208;51.928;6.584;2024-02-15T00:27:49;33.11;29.69;40.52;;
69610;Laerm;76208;51.928;6.584;2024-02-15T00:27:59;31.98;29.55;37.98;;
69610;Laerm;76208;51.928;6.584;2024-02-15T00:28:12;32.83;30.32;35.97;;
69610;Laerm;76208;51.928;6.584;2024-02-15T00:28:23;32.01;29.32;36.52;;
69610;Laerm;76208;51.928;6.584;2024-02-15T00:28:34;35.77;29.31;49.35;;
69610;Laerm;76208;51.928;6.584;2024-02-15T00:28:44;35.61;31.08;43.85;;
69610;Laerm;76208;51.928;6.584;2024-02-15T00:28:54;48.91;30.31;63.63;;
69610;Laerm;76208;51.928;6.584;2024-02-15T00:29:04;40.63;30.00;56.79;;
69610;Laerm;76208;51.928;6.584;2024-02-15T00:29:15;31.41;29.37;34.13;;
69610;Laerm;76208;51.928;6.584;2024-02-15T00:29:25;32.88;29.04;42.78;;
69610;Laerm;76208;51.928;6.584;2024-02-15T00:29:38;36.71;29.50;49.71;;
69610;Laerm;76208;51.928;6.584;2024-02-15T00:29:50;41.93;29.80;54.93;;
69610;Laerm;76208;51.928;6.584;2024-02-15T00:30:01;39.40;31.99;50.98;;
69610;Laerm;76208;51.928;6.584;2024-02-15T00:30:11;49.33;32.46;64.71;;
69610;Laerm;76208;51.928;6.584;2024-02-15T00:30:22;47.00;29.76;63.44;;
69610;Laerm;76208;51.928;6.584;2024-02-15T00:30:32;34.69;28.78;48.56;;
69610;Laerm;76208;51.928;6.584;2024-02-15T00:30:42;30.92;29.31;37.39;;
69610;Laerm;76208;51.928;6.584;2024-02-15T00:30:52;31.30;28.62;42.31;;
69610;Laerm;76208;51.928;6.584;2024-02-15T00:31:03;30.34;28.37;36.60;;
69610;Laerm;76208;51.928;6.584;2024-02-15T00:31:13;30.42;28.71;39.08;;
69610;Laerm;76208;51.928;6.584;2024-02-15T00:31:24;38.73;29.34;50.91;;
69610;Laerm;76208;51.928;6.584;2024-02-15T00:31:34;32.56;28.96;40.69;;
69610;Laerm;76208;51.928;6.584;2024-02-15T00:31:45;43.86;28.86;55.76;;
69610;Laerm;76208;51.928;6.584;2024-02-15T00:31:57;39.09;29.22;50.84;;
69610;Laerm;76208;51.928;6.584;2024-02-15T00:32:07;36.16;28.92;50.14;;
69610;Laerm;76208;51.928;6.584;2024-02-15T00:32:17;32.38;28.48;42.08;;
69610;Laerm;76208;51.928;6.584;2024-02-15T00:32:27;30.96;28.02;46.96;;
69610;Laerm;76208;51.928;6.584;2024-02-15T00:32:38;30.36;28.76;34.55;;
69610;Laerm;76208;51.928;6.584;2024-02-15T00:32:49;31.61;28.62;41.26;;
69610;Laerm;76208;51.928;6.584;2024-02-15T00:32:59;32.14;28.86;40.48;;
69610;Laerm;76208;51.928;6.584;2024-02-15T00:33:10;33.98;28.74;46.24;;
69610;Laerm;76208;51.928;6.584;2024-02-15T00:33:20;31.66;29.03;40.56;;
69610;Laerm;76208;51.928;6.584;2024-02-15T00:33:32;30.76;28.11;35.69;;
69610;Laerm;76208;51.928;6.584;2024-02-15T00:33:42;30.60;28.58;37.38;;
69610;Laerm;76208;51.928;6.584;2024-02-15T00:33:52;31.56;28.54;39.86;;
69610;Laerm;76208;51.928;6.584;2024-02-15T00:34:04;33.83;29.02;43.22;;
69610;Laerm;76208;51.928;6.584;2024-02-15T00:34:14;36.67;28.83;48.34;;
69610;Laerm;76208;51.928;6.584;2024-02-15T00:34:24;38.48;28.61;49.25;;
69610;Laerm;76208;51.928;6.584;2024-02-15T00:34:36;30.84;28.67;39.45;;
69610;Laerm;76208;51.928;6.584;2024-02-15T00:34:48;30.23;28.69;37.51;;
69610;Laerm;76208;51.928;6.584;2024-02-15T00:34:59;30.95;28.28;41.83;;
69610;Laerm;76208;51.928;6.584;2024-02-15T00:35:09;30.26;28.30;37.53;;
69610;Laerm;76208;51.928;6.584;2024-02-15T00:35:19;32.18;28.82;41.36;;
69610;Laerm;76208;51.928;6.584;2024-02-15T00:35:29;34.46;29.35;45.89;;
69610;Laerm;76208;51.928;6.584;2024-02-15T00:35:40;41.77;29.62;51.84;;
69610;Laerm;76208;51.928;6.584;2024-02-15T00:35:50;43.69;28.69;62.74;;
69610;Laerm;76208;51.928;6.584;2024-02-15T00:36:02;31.21;28.67;38.50;;
69610;Laerm;76208;51.928;6.584;2024-02-15T00:36:13;31.97;28.96;43.30;;
69610;Laerm;76208;51.928;6.584;2024-02-15T00:36:24;35.00;29.73;45.93;;
69610;Laerm;76208;51.928;6.584;2024-02-15T00:36:34;31.87;28.78;39.39;;
69610;Laerm;76208;51.928;6.584;2024-02-15T00:36:44;30.27;28.33;36.56;;
69610;Laerm;76208;51.928;6.584;2024-02-15T00:36:54;40.25;28.81;50.34;;
69610;Laerm;76208;51.928;6.584;2024-02-15T00:37:05;35.56;29.45;50.30;;
69610;Laerm;76208;51.928;6.584;2024-02-15T00:37:15;36.67;29.16;50.03;;
69610;Laerm;76208;51.928;6.584;2024-02-15T00:37:26;45.25;28.85;58.91;;
69610;Laerm;76208;51.928;6.584;2024-02-15T00:37:36;34.91;28.65;46.05;;
69610;Laerm;76208;51.928;6.584;2024-02-15T00:37:47;45.46;28.24;60.89;;
69610;Laerm;76208;51.928;6.584;2024-02-15T00:37:57;39.16;29.46;48.54;;
69610;Laerm;76208;51.928;6.584;2024-02-15T00:38:07;39.51;28.62;51.43;;
69610;Laerm;76208;51.928;6.584;2024-02-15T00:38:18;33.91;29.01;45.89;;
69610;Laerm;76208;51.928;6.584;2024-02-15T00:38:29;44.18;29.02;57.84;;
69610;Laerm;76208;51.928;6.584;2024-02-15T00:38:39;40.37;29.05;51.33;;
69610;Laerm;76208;51.928;6.584;2024-02-15T00:38:49;29.98;28.12;34.02;;
69610;Laerm;76208;51.928;6.584;2024-02-15T00:38:59;30.28;28.03;35.79;;
69610;Laerm;76208;51.928;6.584;2024-02-15T00:39:10;31.41;28.37;39.46;;
69610;Laerm;76208;51.928;6.584;2024-02-15T00:39:21;31.38;28.50;42.05;;
69610;Laerm;76208;51.928;6.584;2024-02-15T00:39:31;31.00;28.00;40.01;;
69610;Laerm;76208;51.928;6.584;2024-02-15T00:39:42;29.48;27.40;36.02;;
69610;Laerm;76208;51.928;6.584;2024-02-15T00:39:53;30.76;27.94;39.56;;
69610;Laerm;76208;51.928;6.584;2024-02-15T00:40:03;46.60;28.36;60.28;;
69610;Laerm;76208;51.928;6.584;2024-02-15T00:40:14;33.94;28.29;46.12;;
69610;Laerm;76208;51.928;6.584;2024-02-15T00:40:24;35.93;28.27;48.46;;
69610;Laerm;76208;51.928;6.584;2024-02-15T00:40:34;45.31;29.92;55.27;;
69610;Laerm;76208;51.928;6.584;2024-02-15T00:40:44;50.20;32.55;61.43;;
69610;Laerm;76208;51.928;6.584;2024-02-15T00:40:55;44.11;28.69;56.26;;
69610;Laerm;76208;51.928;6.584;2024-02-15T00:41:05;46.73;28.60;62.06;;
69610;Laerm;76208;51.928;6.584;2024-02-15T00:41:16;30.62;28.03;38.54;;
69610;Laerm;76208;51.928;6.584;2024-02-15T00:41:26;33.22;28.80;45.85;;
69610;Laerm;76208;51.928;6.584;2024-02-15T00:41:37;32.34;28.32;44.26;;
69610;Laerm;76208;51.928;6.584;2024-02-15T00:41:51;31.34;27.91;39.73;;
69610;Laerm;76208;51.928;6.584;2024-02-15T00:42:01;30.45;28.14;37.37;;
69610;Laerm;76208;51.928;6.584;2024-02-15T00:42:12;29.99;28.39;36.65;;
69610;Laerm;76208;51.928;6.584;2024-02-15T00:42:22;38.41;28.49;50.71;;
69610;Laerm;76208;51.928;6.584;2024-02-15T00:42:33;36.01;28.58;49.53;;
69610;Laerm;76208;51.928;6.584;2024-02-15T00:42:43;44.43;28.37;56.81;;
69610;Laerm;76208;51.928;6.584;2024-02-15T00:42:53;38.12;28.30;49.70;;
69610;Laerm;76208;51.928;6.584;2024-02-15T00:43:03;39.14;28.14;55.31;;
69610;Laerm;76208;51.928;6.584;2024-02-15T00:43:14;30.69;28.39;41.06;;
69610;Laerm;76208;51.928;6.584;2024-02-15T00:43:26;46.77;28.86;61.35;;
69610;Laerm;76208;51.928;6.584;2024-02-15T00:43:36;47.68;29.69;58.69;;
69610;Laerm;76208;51.928;6.584;2024-02-15T00:43:47;35.98;27.61;47.89;;
69610;Laerm;76208;51.928;6.584;2024-02-15T00:43:57;31.52;28.33;40.39;;
69610;Laerm;76208;51.928;6.584;2024-02-15T00:44:08;39.99;28.67;56.76;;
69610;Laerm;76208;51.928;6.584;2024-02-15T00:44:20;46.65;28.07;63.45;;
69610;Laerm;76208;51.928;6.584;2024-02-15T00:44:30;31.78;28.38;42.23;;
69610;Laerm;76208;51.928;6.584;2024-02-15T00:44:40;41.45;29.48;54.63;;
69610;Laerm;76208;51.928;6.584;2024-02-15T00:44:51;36.17;28.94;48.89;;
69610;Laerm;76208;51.928;6.584;2024-02-15T00:45:01;38.19;28.53;48.74;;
69610;Laerm;76208;51.928;6.584;2024-02-15T00:45:12;36.13;27.85;48.98;;
69610;Laerm;76208;51.928;6.584;2024-02-15T00:45:22;29.91;28.15;38.17;;
69610;Laerm;76208;51.928;6.584;2024-02-15T00:45:32;34.40;28.17;45.53;;
69610;Laerm;76208;51.928;6.584;2024-02-15T00:45:42;31.16;27.90;47.14;;
69610;Laerm;76208;51.928;6.584;2024-02-15T00:45:53;40.17;28.21;53.14;;
69610;Laerm;76208;51.928;6.584;2024-02-15T00:46:03;35.12;27.89;48.83;;
69610;Laerm;76208;51.928;6.584;2024-02-15T00:46:14;34.90;28.59;45.36;;
69610;Laerm;76208;51.928;6.584;2024-02-15T00:46:25;31.34;28.45;43.36;;
69610;Laerm;76208;51.928;6.584;2024-02-15T00:46:39;30.44;28.46;34.37;;
69610;Laerm;76208;51.928;6.584;2024-02-15T00:46:49;29.75;27.58;36.89;;
69610;Laerm;76208;51.928;6.584;2024-02-15T00:46:59;29.78;28.33;39.00;;
69610;Laerm;76208;51.928;6.584;2024-02-15T00:47:09;30.22;28.24;35.80;;
69610;Laerm;76208;51.928;6.584;2024-02-15T00:47:21;36.57;28.55;54.04;;
69610;Laerm;76208;51.928;6.584;2024-02-15T00:47:31;44.25;28.38;57.46;;
69610;Laerm;76208;51.928;6.584;2024-02-15T00:47:42;29.18;28.03;31.74;;
69610;Laerm;76208;51.928;6.584;2024-02-15T00:47:53;31.71;27.86;40.75;;
69610;Laerm;76208;51.928;6.584;2024-02-15T00:48:04;34.09;28.20;44.03;;
69610;Laerm;76208;51.928;6.584;2024-02-15T00:48:16;36.16;28.49;48.66;;
69610;Laerm;76208;51.928;6.584;2024-02-15T00:48:26;41.05;29.10;53.22;;
69610;Laerm;76208;51.928;6.584;2024-02-15T00:48:38;43.69;28.17;57.39;;
69610;Laerm;76208;51.928;6.584;2024-02-15T00:48:50;31.44;28.20;42.63;;
69610;Laerm;76208;51.928;6.584;2024-02-15T00:49:00;35.74;27.73;49.12;;
69610;Laerm;76208;51.928;6.584;2024-02-15T00:49:10;33.57;28.13;46.95;;
69610;Laerm;76208;51.928;6.584;2024-02-15T00:49:21;36.09;28.37;45.75;;
69610;Laerm;76208;51.928;6.584;2024-02-15T00:49:32;48.18;29.55;63.13;;
69610;Laerm;76208;51.928;6.584;2024-02-15T00:49:42;49.92;30.29;62.01;;
69610;Laerm;76208;51.928;6.584;2024-02-15T00:49:52;42.93;30.10;54.31;;
69610;Laerm;76208;51.928;6.584;2024-02-15T00:50:02;37.60;29.73;53.01;;
69610;Laerm;76208;51.928;6.584;2024-02-15T00:50:13;48.38;29.31;63.69;;
69610;Laerm;76208;51.928;6.584;2024-02-15T00:50:23;47.00;30.19;59.23;;
69610;Laerm;76208;51.928;6.584;2024-02-15T00:50:33;44.73;30.78;58.44;;
69610;Laerm;76208;51.928;6.584;2024-02-15T00:50:43;52.14;30.71;62.31;;
69610;Laerm;76208;51.928;6.584;2024-02-15T00:50:54;45.73;30.18;61.34;;
69610;Laerm;76208;51.928;6.584;2024-02-15T00:51:04;42.26;30.58;51.58;;
69610;Laerm;76208;51.928;6.584;2024-02-15T00:51:14;44.26;28.41;58.41;;
69610;Laerm;76208;51.928;6.584;2024-02-15T00:51:24;41.84;28.47;54.16;;
69610;Laerm;76208;51.928;6.584;2024-02-15T00:51:35;40.26;28.13;55.34;;
69610;Laerm;76208;51.928;6.584;2024-02-15T00:51:46;33.00;28.57;44.68;;
69610;Laerm;76208;51.928;6.584;2024-02-15T00:51:57;30.60;27.96;38.90;;
69610;Laerm;76208;51.928;6.584;2024-02-15T00:52:07;29.30;27.96;31.87;;
69610;Laerm;76208;51.928;6.584;2024-02-15T00:52:17;29.35;27.74;34.89;;
69610;Laerm;76208;51.928;6.584;2024-02-15T00:52:30;30.88;27.87;39.88;;
69610;Laerm;76208;51.928;6.584;2024-02-15T00:52:40;32.42;27.96;43.08;;
69610;Laerm;76208;51.928;6.584;2024-02-15T00:52:51;34.58;28.10;49.02;;
69610;Laerm;76208;51.928;6.584;2024-02-15T00:53:01;31.06;27.82;46.06;;
69610;Laerm;76208;51.928;6.584;2024-02-15T00:53:11;29.97;28.27;35.85;;
69610;Laerm;76208;51.928;6.584;2024-02-15T00:53:21;31.42;28.13;41.12;;
69610;Laerm;76208;51.928;6.584;2024-02-15T00:53:32;37.52;28.08;50.88;;
69610;Laerm;76208;51.928;6.584;2024-02-15T00:53:42;29.68;28.08;36.99;;
69610;Laerm;76208;51.928;6.584;2024-02-15T00:53:52;30.31;27.92;37.15;;
69610;Laerm;76208;51.928;6.584;2024-02-15T00:54:02;30.04;27.58;38.53;;
69610;Laerm;76208;51.928;6.584;2024-02-15T00:54:13;29.73;27.58;41.87;;
69610;Laerm;76208;51.928;6.584;2024-02-15T00:54:23;28.84;27.54;33.57;;
69610;Laerm;76208;51.928;6.584;2024-02-15T00:54:33;29.99;27.74;37.52;;
69610;Laerm;76208;51.928;6.584;2024-02-15T00:54:44;29.89;27.91;39.01;;
69610;Laerm;76208;51.928;6.584;2024-02-15T00:54:54;30.91;28.48;45.72;;
69610;Laerm;76208;51.928;6.584;2024-02-15T00:55:04;37.63;31.27;41.61;;
69610;Laerm;76208;51.928;6.584;2024-02-15T00:55:14;41.48;39.91;43.44;;
69610;Laerm;76208;51.928;6.584;2024-02-15T00:55:25;41.79;40.01;45.65;;
69610;Laerm;76208;51.928;6.584;2024-02-15T00:55:35;41.84;40.36;43.28;;
69610;Laerm;76208;51.928;6.584;2024-02-15T00:55:45;40.96;37.21;43.27;;
69610;Laerm;76208;51.928;6.584;2024-02-15T00:55:55;38.97;37.56;40.49;;
69610;Laerm;76208;51.928;6.584;2024-02-15T00:56:06;40.26;38.22;46.24;;
69610;Laerm;76208;51.928;6.584;2024-02-15T00:56:16;40.00;37.00;51.78;;
69610;Laerm;76208;51.928;6.584;2024-02-15T00:56:27;39.48;37.37;42.03;;
69610;Laerm;76208;51.928;6.584;2024-02-15T00:56:39;39.68;37.60;42.16;;
69610;Laerm;76208;51.928;6.584;2024-02-15T00:56:50;40.66;38.26;47.86;;
69610;Laerm;76208;51.928;6.584;2024-02-15T00:57:01;41.30;39.02;43.46;;
69610;Laerm;76208;51.928;6.584;2024-02-15T00:57:11;40.33;37.64;42.84;;
69610;Laerm;76208;51.928;6.584;2024-02-15T00:57:21;38.99;37.67;40.72;;
69610;Laerm;76208;51.928;6.584;2024-02-15T00:57:32;39.11;37.04;41.40;;
69610;Laerm;76208;51.928;6.584;2024-02-15T00:57:42;39.70;37.48;47.65;;
69610;Laerm;76208;51.928;6.584;2024-02-15T00:57:52;39.23;37.56;42.28;;
69610;Laerm;76208;51.928;6.584;2024-02-15T00:58:02;39.06;37.21;41.24;;
69610;Laerm;76208;51.928;6.584;2024-02-15T00:58:13;39.31;37.76;41.11;;
69610;Laerm;76208;51.928;6.584;2024-02-15T00:58:23;39.57;37.98;41.52;;
69610;Laerm;76208;51.928;6.584;2024-02-15T00:58:35;43.10;38.33;55.58;;
69610;Laerm;76208;51.928;6.584;2024-02-15T00:58:46;39.63;37.93;42.42;;
69610;Laerm;76208;51.928;6.584;2024-02-15T00:58:56;40.19;37.65;50.65;;
69610;Laerm;76208;51.928;6.584;2024-02-15T00:59:06;39.64;38.03;41.54;;
69610;Laerm;76208;51.928;6.584;2024-02-15T00:59:17;40.30;38.07;47.26;;